PWSweather.com
Personal Weather Stations
Station Observations
KMNMADEL2
Andys Live Weather Stations, Madelia, MN 56062

Andys Live Weather StationsMadelia, MN 56062

Lat: 44.04636, Lon: -94.4163437

Elevation: 1006

Station Type: Wireless Davis Instruments Vantage Pro2 Plus

http://www.madeliasliveweather.com/

Latest ConditionsUpdated 4:50:01 PM CST Sunday, Feb 14, 2016
Currently Today's Max Today's Min Today's Average
Temperature 20.3°F-6.5°C 21.2°F-6.0°C 11.1°F-11.6°C 16.1°F-8.8°C
Dew Point 16.8°F-8.4°C 17.7°F-7.9°C 5.4°F-14.8°C 12.6°F-10.8°C
Winds 4.0 mph SSE6.4 kmh SSE 15.0 mph S24.1 kmh S - 6.0 mph 9.7 kmh
Wind Gusts 12.0 mph19.3 kmh 20.0 mph32.2 kmh - -
Humidity 86% 90% 77% 86%
Pressure 29.95 in1014.2 mb 30.33 in1027.1 mb 29.95 in1014.2 mb -
Hour Temp Dew Point Humidity Winds Wind Gusts Pressure Precip Precip Rate Daily Precip Total
04:50 PM 20.3°F-6.5°C 16.8°F-8.4°C 86% 4.0 mph SSE6.4 kmh SSE 12.0 mph19.3 kmh 29.95 in1014.2 mb 0.00 in0.0 mm 0.00 in0.0 mm 0.00 in0.0 mm
04:45 PM 20.4°F-6.4°C 16.9°F-8.4°C 86% 5.0 mph SE8.0 kmh SE 10.0 mph16.1 kmh 29.96 in1014.6 mb 0.00 in0.0 mm 0.00 in0.0 mm 0.00 in0.0 mm
04:40 PM 20.5°F-6.4°C 17.0°F-8.3°C 86% 3.0 mph SE4.8 kmh SE 9.0 mph14.5 kmh 29.96 in1014.6 mb 0.00 in0.0 mm 0.00 in0.0 mm 0.00 in0.0 mm
04:35 PM 20.5°F-6.4°C 17.0°F-8.3°C 86% 3.0 mph SE4.8 kmh SE 9.0 mph14.5 kmh 29.95 in1014.2 mb 0.00 in0.0 mm 0.00 in0.0 mm 0.00 in0.0 mm
04:30 PM 20.4°F-6.4°C 16.9°F-8.4°C 86% 6.0 mph SE9.7 kmh SE 9.0 mph14.5 kmh 29.95 in1014.2 mb 0.00 in0.0 mm 0.00 in0.0 mm 0.00 in0.0 mm
04:25 PM 20.5°F-6.4°C 17.0°F-8.3°C 86% 10.0 mph S16.1 kmh S 11.0 mph17.7 kmh 29.95 in1014.2 mb 0.00 in0.0 mm 0.00 in0.0 mm 0.00 in0.0 mm
04:20 PM 20.7°F-6.3°C 17.5°F-8.1°C 87% 4.0 mph S6.4 kmh S 11.0 mph17.7 kmh 29.95 in1014.2 mb 0.00 in0.0 mm 0.00 in0.0 mm 0.00 in0.0 mm
04:15 PM 20.6°F-6.3°C 17.4°F-8.1°C 87% 5.0 mph SSE8.0 kmh SSE 11.0 mph17.7 kmh 29.95 in1014.2 mb 0.00 in0.0 mm 0.00 in0.0 mm 0.00 in0.0 mm
04:10 PM 20.6°F-6.3°C 17.1°F-8.3°C 86% 4.0 mph SSE6.4 kmh SSE 11.0 mph17.7 kmh 29.95 in1014.2 mb 0.00 in0.0 mm 0.00 in0.0 mm 0.00 in0.0 mm
04:05 PM 20.8°F-6.2°C 17.3°F-8.2°C 86% 3.0 mph SE4.8 kmh SE 11.0 mph17.7 kmh 29.95 in1014.2 mb 0.00 in0.0 mm 0.00 in0.0 mm 0.00 in0.0 mm
04:00 PM 20.9°F-6.2°C 17.4°F-8.1°C 86% 5.0 mph ESE8.0 kmh ESE 11.0 mph17.7 kmh 29.95 in1014.2 mb 0.00 in0.0 mm 0.00 in0.0 mm 0.00 in0.0 mm
03:55 PM 20.9°F-6.2°C 17.4°F-8.1°C 86% 3.0 mph SE4.8 kmh SE 12.0 mph19.3 kmh 29.95 in1014.2 mb 0.00 in0.0 mm 0.00 in0.0 mm 0.00 in0.0 mm
03:50 PM 20.9°F-6.2°C 17.4°F-8.1°C 86% 6.0 mph SSW9.7 kmh SSW 12.0 mph19.3 kmh 29.95 in1014.2 mb 0.00 in0.0 mm 0.00 in0.0 mm 0.00 in0.0 mm
03:45 PM 21.2°F-6.0°C 17.7°F-7.9°C 86% 3.0 mph S4.8 kmh S 12.0 mph19.3 kmh 29.95 in1014.2 mb 0.00 in0.0 mm 0.00 in0.0 mm 0.00 in0.0 mm
03:40 PM 20.9°F-6.2°C 17.4°F-8.1°C 86% 5.0 mph SE8.0 kmh SE 12.0 mph19.3 kmh 29.95 in1014.2 mb 0.00 in0.0 mm 0.00 in0.0 mm 0.00 in0.0 mm
03:35 PM 20.8°F-6.2°C 17.3°F-8.2°C 86% 4.0 mph S6.4 kmh S 6.0 mph9.7 kmh 29.95 in1014.2 mb 0.00 in0.0 mm 0.00 in0.0 mm 0.00 in0.0 mm
03:30 PM 20.6°F-6.3°C 17.1°F-8.3°C 86% 3.0 mph SE4.8 kmh SE 6.0 mph9.7 kmh 29.95 in1014.2 mb 0.00 in0.0 mm 0.00 in0.0 mm 0.00 in0.0 mm
03:25 PM 20.8°F-6.2°C 17.0°F-8.3°C 85% 5.0 mph SE8.0 kmh SE 14.0 mph22.5 kmh 29.95 in1014.2 mb 0.00 in0.0 mm 0.00 in0.0 mm 0.00 in0.0 mm
03:20 PM 20.8°F-6.2°C 17.0°F-8.3°C 85% 6.0 mph S9.7 kmh S 14.0 mph22.5 kmh 29.96 in1014.6 mb 0.00 in0.0 mm 0.00 in0.0 mm 0.00 in0.0 mm
03:15 PM 20.8°F-6.2°C 17.0°F-8.3°C 85% 3.0 mph SW4.8 kmh SW 14.0 mph22.5 kmh 29.96 in1014.6 mb 0.00 in0.0 mm 0.00 in0.0 mm 0.00 in0.0 mm
03:10 PM 20.8°F-6.2°C 17.0°F-8.3°C 85% 7.0 mph E11.3 kmh E 14.0 mph22.5 kmh 29.96 in1014.6 mb 0.00 in0.0 mm 0.00 in0.0 mm 0.00 in0.0 mm
03:05 PM 20.7°F-6.3°C 16.9°F-8.4°C 85% 4.0 mph SE6.4 kmh SE 13.0 mph20.9 kmh 29.96 in1014.6 mb 0.00 in0.0 mm 0.00 in0.0 mm 0.00 in0.0 mm
03:00 PM 20.6°F-6.3°C 16.5°F-8.6°C 84% 8.0 mph SE12.9 kmh SE 10.0 mph16.1 kmh 29.96 in1014.6 mb 0.00 in0.0 mm 0.00 in0.0 mm 0.00 in0.0 mm
02:55 PM 20.8°F-6.2°C 16.7°F-8.5°C 84% 6.0 mph S9.7 kmh S 13.0 mph20.9 kmh 29.96 in1014.6 mb 0.00 in0.0 mm 0.00 in0.0 mm 0.00 in0.0 mm
02:50 PM 20.8°F-6.2°C 16.7°F-8.5°C 84% 6.0 mph S9.7 kmh S 13.0 mph20.9 kmh 29.95 in1014.2 mb 0.00 in0.0 mm 0.00 in0.0 mm 0.00 in0.0 mm
02:45 PM 20.7°F-6.3°C 16.6°F-8.6°C 84% 5.0 mph S8.0 kmh S 12.0 mph19.3 kmh 29.95 in1014.2 mb 0.00 in0.0 mm 0.00 in0.0 mm 0.00 in0.0 mm
02:40 PM 20.7°F-6.3°C 16.9°F-8.4°C 85% 8.0 mph SE12.9 kmh SE 12.0 mph19.3 kmh 29.95 in1014.2 mb 0.00 in0.0 mm 0.00 in0.0 mm 0.00 in0.0 mm
02:35 PM 20.5°F-6.4°C 16.4°F-8.7°C 84% 3.0 mph S4.8 kmh S 12.0 mph19.3 kmh 29.95 in1014.2 mb 0.00 in0.0 mm 0.00 in0.0 mm 0.00 in0.0 mm
02:30 PM 20.5°F-6.4°C 16.4°F-8.7°C 84% 5.0 mph SE8.0 kmh SE 10.0 mph16.1 kmh 29.95 in1014.2 mb 0.00 in0.0 mm 0.00 in0.0 mm 0.00 in0.0 mm
02:25 PM 20.6°F-6.3°C 16.8°F-8.4°C 85% 6.0 mph SE9.7 kmh SE 13.0 mph20.9 kmh 29.95 in1014.2 mb 0.00 in0.0 mm 0.00 in0.0 mm 0.00 in0.0 mm
02:20 PM 20.1°F-6.6°C 16.1°F-8.8°C 84% 6.0 mph SE9.7 kmh SE 13.0 mph20.9 kmh 29.95 in1014.2 mb 0.00 in0.0 mm 0.00 in0.0 mm 0.00 in0.0 mm
02:15 PM 20.1°F-6.6°C 16.1°F-8.8°C 84% 6.0 mph S9.7 kmh S 13.0 mph20.9 kmh 29.95 in1014.2 mb 0.00 in0.0 mm 0.00 in0.0 mm 0.00 in0.0 mm
02:10 PM 20.1°F-6.6°C 16.1°F-8.8°C 84% 5.0 mph SE8.0 kmh SE 13.0 mph20.9 kmh 29.95 in1014.2 mb 0.00 in0.0 mm 0.00 in0.0 mm 0.00 in0.0 mm
02:05 PM 20.0°F-6.7°C 16.2°F-8.8°C 85% 3.0 mph SE4.8 kmh SE 10.0 mph16.1 kmh 29.95 in1014.2 mb 0.00 in0.0 mm 0.00 in0.0 mm 0.00 in0.0 mm
02:00 PM 19.9°F-6.7°C 15.9°F-8.9°C 84% 5.0 mph SSE8.0 kmh SSE 7.0 mph11.3 kmh 29.95 in1014.2 mb 0.00 in0.0 mm 0.00 in0.0 mm 0.00 in0.0 mm
01:55 PM 20.0°F-6.7°C 16.2°F-8.8°C 85% 6.0 mph SSE9.7 kmh SSE 15.0 mph24.1 kmh 29.96 in1014.6 mb 0.00 in0.0 mm 0.00 in0.0 mm 0.00 in0.0 mm
01:50 PM 20.0°F-6.7°C 16.0°F-8.9°C 84% 6.0 mph S9.7 kmh S 15.0 mph24.1 kmh 29.95 in1014.2 mb 0.00 in0.0 mm 0.00 in0.0 mm 0.00 in0.0 mm
01:45 PM 20.2°F-6.6°C 16.2°F-8.8°C 84% 9.0 mph SSE14.5 kmh SSE 15.0 mph24.1 kmh 29.95 in1014.2 mb 0.00 in0.0 mm 0.00 in0.0 mm 0.00 in0.0 mm
01:40 PM 20.1°F-6.6°C 16.1°F-8.8°C 84% 4.0 mph SE6.4 kmh SE 15.0 mph24.1 kmh 29.96 in1014.6 mb 0.00 in0.0 mm 0.00 in0.0 mm 0.00 in0.0 mm
01:35 PM 19.9°F-6.7°C 15.9°F-8.9°C 84% 7.0 mph SE11.3 kmh SE 14.0 mph22.5 kmh 29.96 in1014.6 mb 0.00 in0.0 mm 0.00 in0.0 mm 0.00 in0.0 mm
01:30 PM 19.9°F-6.7°C 16.4°F-8.7°C 86% 2.0 mph S3.2 kmh S 8.0 mph12.9 kmh 29.96 in1014.6 mb 0.00 in0.0 mm 0.00 in0.0 mm 0.00 in0.0 mm
01:25 PM 20.0°F-6.7°C 16.2°F-8.8°C 85% 8.0 mph SE12.9 kmh SE 16.0 mph25.7 kmh 29.96 in1014.6 mb 0.00 in0.0 mm 0.00 in0.0 mm 0.00 in0.0 mm
01:20 PM 20.0°F-6.7°C 16.0°F-8.9°C 84% 7.0 mph SSE11.3 kmh SSE 16.0 mph25.7 kmh 29.96 in1014.6 mb 0.00 in0.0 mm 0.00 in0.0 mm 0.00 in0.0 mm
01:15 PM 20.0°F-6.7°C 15.7°F-9.1°C 83% 11.0 mph SSE17.7 kmh SSE 16.0 mph25.7 kmh 29.96 in1014.6 mb 0.00 in0.0 mm 0.00 in0.0 mm 0.00 in0.0 mm
01:10 PM 20.0°F-6.7°C 15.7°F-9.1°C 83% 6.0 mph S9.7 kmh S 16.0 mph25.7 kmh 29.97 in1014.9 mb 0.00 in0.0 mm 0.00 in0.0 mm 0.00 in0.0 mm
01:05 PM 19.9°F-6.7°C 15.9°F-8.9°C 84% 7.0 mph SE11.3 kmh SE 15.0 mph24.1 kmh 29.97 in1014.9 mb 0.00 in0.0 mm 0.00 in0.0 mm 0.00 in0.0 mm
01:00 PM 19.8°F-6.8°C 15.8°F-9.0°C 84% 7.0 mph S11.3 kmh S 13.0 mph20.9 kmh 29.97 in1014.9 mb 0.00 in0.0 mm 0.00 in0.0 mm 0.00 in0.0 mm
12:55 PM 19.8°F-6.8°C 15.5°F-9.2°C 83% 11.0 mph SE17.7 kmh SE 16.0 mph25.7 kmh 29.97 in1014.9 mb 0.00 in0.0 mm 0.00 in0.0 mm 0.00 in0.0 mm
12:50 PM 19.8°F-6.8°C 15.8°F-9.0°C 84% 5.0 mph SE8.0 kmh SE 16.0 mph25.7 kmh 29.98 in1015.2 mb 0.00 in0.0 mm 0.00 in0.0 mm 0.00 in0.0 mm
12:45 PM 19.7°F-6.8°C 15.7°F-9.1°C 84% 7.0 mph ESE11.3 kmh ESE 16.0 mph25.7 kmh 29.98 in1015.2 mb 0.00 in0.0 mm 0.00 in0.0 mm 0.00 in0.0 mm
12:40 PM 19.7°F-6.8°C 15.7°F-9.1°C 84% 9.0 mph SE14.5 kmh SE 16.0 mph25.7 kmh 29.99 in1015.6 mb 0.00 in0.0 mm 0.00 in0.0 mm 0.00 in0.0 mm
12:35 PM 19.7°F-6.8°C 15.7°F-9.1°C 84% 7.0 mph SE11.3 kmh SE 16.0 mph25.7 kmh 30.00 in1015.9 mb 0.00 in0.0 mm 0.00 in0.0 mm 0.00 in0.0 mm
12:30 PM 19.6°F-6.9°C 15.6°F-9.1°C 84% 8.0 mph S12.9 kmh S 11.0 mph17.7 kmh 30.00 in1015.9 mb 0.00 in0.0 mm 0.00 in0.0 mm 0.00 in0.0 mm
12:25 PM 19.6°F-6.9°C 15.6°F-9.1°C 84% 8.0 mph SSE12.9 kmh SSE 15.0 mph24.1 kmh 30.00 in1015.9 mb 0.00 in0.0 mm 0.00 in0.0 mm 0.00 in0.0 mm
12:20 PM 19.6°F-6.9°C 15.8°F-9.0°C 85% 3.0 mph SSE4.8 kmh SSE 15.0 mph24.1 kmh 30.00 in1015.9 mb 0.00 in0.0 mm 0.00 in0.0 mm 0.00 in0.0 mm
12:15 PM 19.5°F-6.9°C 15.7°F-9.1°C 85% 5.0 mph ESE8.0 kmh ESE 13.0 mph20.9 kmh 30.00 in1015.9 mb 0.00 in0.0 mm 0.00 in0.0 mm 0.00 in0.0 mm
12:10 PM 19.4°F-7.0°C 15.9°F-8.9°C 86% 6.0 mph SE9.7 kmh SE 13.0 mph20.9 kmh 30.01 in1016.3 mb 0.00 in0.0 mm 0.00 in0.0 mm 0.00 in0.0 mm
12:05 PM 19.2°F-7.1°C 15.7°F-9.1°C 86% 4.0 mph SE6.4 kmh SE 13.0 mph20.9 kmh 30.01 in1016.3 mb 0.00 in0.0 mm 0.00 in0.0 mm 0.00 in0.0 mm
12:00 PM 19.0°F-7.2°C 15.2°F-9.3°C 85% 8.0 mph SSE12.9 kmh SSE 13.0 mph20.9 kmh 30.01 in1016.3 mb 0.00 in0.0 mm 0.00 in0.0 mm 0.00 in0.0 mm
11:55 AM 18.9°F-7.3°C 15.2°F-9.3°C 85% 6.0 mph SSE9.7 kmh SSE 15.0 mph24.1 kmh 30.02 in1016.6 mb 0.00 in0.0 mm 0.00 in0.0 mm 0.00 in0.0 mm
11:50 AM 19.1°F-7.2°C 15.3°F-9.3°C 85% 6.0 mph SE9.7 kmh SE 15.0 mph24.1 kmh 30.02 in1016.6 mb 0.00 in0.0 mm 0.00 in0.0 mm 0.00 in0.0 mm
11:45 AM 19.1°F-7.2°C 15.3°F-9.3°C 85% 5.0 mph SE8.0 kmh SE 15.0 mph24.1 kmh 30.02 in1016.6 mb 0.00 in0.0 mm 0.00 in0.0 mm 0.00 in0.0 mm
11:40 AM 19.1°F-7.2°C 15.3°F-9.3°C 85% 7.0 mph SSE11.3 kmh SSE 12.0 mph19.3 kmh 30.02 in1016.6 mb 0.00 in0.0 mm 0.00 in0.0 mm 0.00 in0.0 mm
11:35 AM 19.0°F-7.2°C 15.2°F-9.3°C 85% 7.0 mph SE11.3 kmh SE 12.0 mph19.3 kmh 30.02 in1016.6 mb 0.00 in0.0 mm 0.00 in0.0 mm 0.00 in0.0 mm
11:30 AM 19.0°F-7.2°C 15.2°F-9.3°C 85% 4.0 mph SSE6.4 kmh SSE 8.0 mph12.9 kmh 30.02 in1016.6 mb 0.00 in0.0 mm 0.00 in0.0 mm 0.00 in0.0 mm
11:25 AM 18.9°F-7.3°C 15.2°F-9.3°C 85% 9.0 mph SE14.5 kmh SE 18.0 mph29.0 kmh 30.03 in1016.9 mb 0.00 in0.0 mm 0.00 in0.0 mm 0.00 in0.0 mm
11:20 AM 18.8°F-7.3°C 15.3°F-9.3°C 86% 7.0 mph SSE11.3 kmh SSE 15.0 mph24.1 kmh 30.03 in1016.9 mb 0.00 in0.0 mm 0.00 in0.0 mm 0.00 in0.0 mm
11:15 AM 18.8°F-7.3°C 15.1°F-9.4°C 85% 11.0 mph SE17.7 kmh SE 15.0 mph24.1 kmh 30.03 in1016.9 mb 0.00 in0.0 mm 0.00 in0.0 mm 0.00 in0.0 mm
11:10 AM 18.7°F-7.4°C 15.2°F-9.3°C 86% 5.0 mph SE8.0 kmh SE 15.0 mph24.1 kmh 30.04 in1017.3 mb 0.00 in0.0 mm 0.00 in0.0 mm 0.00 in0.0 mm
11:05 AM 18.5°F-7.5°C 14.8°F-9.6°C 85% 5.0 mph SSE8.0 kmh SSE 14.0 mph22.5 kmh 30.04 in1017.3 mb 0.00 in0.0 mm 0.00 in0.0 mm 0.00 in0.0 mm
11:00 AM 18.5°F-7.5°C 14.8°F-9.6°C 85% 8.0 mph S12.9 kmh S 14.0 mph22.5 kmh 30.03 in1016.9 mb 0.00 in0.0 mm 0.00 in0.0 mm 0.00 in0.0 mm
10:55 AM 18.4°F-7.6°C 14.7°F-9.6°C 85% 5.0 mph SE8.0 kmh SE 13.0 mph20.9 kmh 30.04 in1017.3 mb 0.00 in0.0 mm 0.00 in0.0 mm 0.00 in0.0 mm
10:50 AM 18.4°F-7.6°C 14.7°F-9.6°C 85% 2.0 mph S3.2 kmh S 13.0 mph20.9 kmh 30.04 in1017.3 mb 0.00 in0.0 mm 0.00 in0.0 mm 0.00 in0.0 mm
10:45 AM 18.4°F-7.6°C 14.9°F-9.5°C 86% 8.0 mph SE12.9 kmh SE 13.0 mph20.9 kmh 30.04 in1017.3 mb 0.00 in0.0 mm 0.00 in0.0 mm 0.00 in0.0 mm
10:40 AM 18.2°F-7.7°C 14.5°F-9.7°C 85% 4.0 mph S6.4 kmh S 13.0 mph20.9 kmh 30.04 in1017.3 mb 0.00 in0.0 mm 0.00 in0.0 mm 0.00 in0.0 mm
10:35 AM 18.1°F-7.7°C 14.4°F-9.8°C 85% 4.0 mph SSE6.4 kmh SSE 13.0 mph20.9 kmh 30.04 in1017.3 mb 0.00 in0.0 mm 0.00 in0.0 mm 0.00 in0.0 mm
10:30 AM 18.1°F-7.7°C 14.4°F-9.8°C 85% 10.0 mph SSE16.1 kmh SSE 11.0 mph17.7 kmh 30.04 in1017.3 mb 0.00 in0.0 mm 0.00 in0.0 mm 0.00 in0.0 mm
10:25 AM 18.0°F-7.8°C 14.5°F-9.7°C 86% 5.0 mph SE8.0 kmh SE 16.0 mph25.7 kmh 30.04 in1017.3 mb 0.00 in0.0 mm 0.00 in0.0 mm 0.00 in0.0 mm
10:20 AM 17.6°F-8.0°C 14.1°F-9.9°C 86% 2.0 mph SE3.2 kmh SE 13.0 mph20.9 kmh 30.04 in1017.3 mb 0.00 in0.0 mm 0.00 in0.0 mm 0.00 in0.0 mm
10:15 AM 17.6°F-8.0°C 14.1°F-9.9°C 86% 7.0 mph S11.3 kmh S 13.0 mph20.9 kmh 30.04 in1017.3 mb 0.00 in0.0 mm 0.00 in0.0 mm 0.00 in0.0 mm
10:10 AM 17.6°F-8.0°C 14.1°F-9.9°C 86% 8.0 mph SE12.9 kmh SE 13.0 mph20.9 kmh 30.04 in1017.3 mb 0.00 in0.0 mm 0.00 in0.0 mm 0.00 in0.0 mm
10:05 AM 17.4°F-8.1°C 13.9°F-10.1°C 86% 6.0 mph SE9.7 kmh SE 13.0 mph20.9 kmh 30.04 in1017.3 mb 0.00 in0.0 mm 0.00 in0.0 mm 0.00 in0.0 mm
10:00 AM 17.3°F-8.2°C 13.8°F-10.1°C 86% 6.0 mph SE9.7 kmh SE 13.0 mph20.9 kmh 30.04 in1017.3 mb 0.00 in0.0 mm 0.00 in0.0 mm 0.00 in0.0 mm
09:55 AM 17.2°F-8.2°C 13.7°F-10.2°C 86% 5.0 mph S8.0 kmh S 15.0 mph24.1 kmh 30.04 in1017.3 mb 0.00 in0.0 mm 0.00 in0.0 mm 0.00 in0.0 mm
09:50 AM 17.2°F-8.2°C 13.7°F-10.2°C 86% 7.0 mph S11.3 kmh S 14.0 mph22.5 kmh 30.04 in1017.3 mb 0.00 in0.0 mm 0.00 in0.0 mm 0.00 in0.0 mm
09:45 AM 17.1°F-8.3°C 13.6°F-10.2°C 86% 5.0 mph SE8.0 kmh SE 14.0 mph22.5 kmh 30.05 in1017.6 mb 0.00 in0.0 mm 0.00 in0.0 mm 0.00 in0.0 mm
09:40 AM 17.0°F-8.3°C 13.8°F-10.1°C 87% 9.0 mph S14.5 kmh S 14.0 mph22.5 kmh 30.05 in1017.6 mb 0.00 in0.0 mm 0.00 in0.0 mm 0.00 in0.0 mm
09:35 AM 16.8°F-8.4°C 13.6°F-10.2°C 87% 3.0 mph SSE4.8 kmh SSE 14.0 mph22.5 kmh 30.05 in1017.6 mb 0.00 in0.0 mm 0.00 in0.0 mm 0.00 in0.0 mm
09:30 AM 16.8°F-8.4°C 13.6°F-10.2°C 87% 11.0 mph SSE17.7 kmh SSE 14.0 mph22.5 kmh 30.05 in1017.6 mb 0.00 in0.0 mm 0.00 in0.0 mm 0.00 in0.0 mm
09:25 AM 16.6°F-8.6°C 13.4°F-10.3°C 87% 4.0 mph S6.4 kmh S 17.0 mph27.4 kmh 30.05 in1017.6 mb 0.00 in0.0 mm 0.00 in0.0 mm 0.00 in0.0 mm
09:20 AM 16.5°F-8.6°C 13.3°F-10.4°C 87% 6.0 mph SE9.7 kmh SE 17.0 mph27.4 kmh 30.05 in1017.6 mb 0.00 in0.0 mm 0.00 in0.0 mm 0.00 in0.0 mm
09:15 AM 16.5°F-8.6°C 13.6°F-10.2°C 88% 6.0 mph SSE9.7 kmh SSE 17.0 mph27.4 kmh 30.05 in1017.6 mb 0.00 in0.0 mm 0.00 in0.0 mm 0.00 in0.0 mm
09:10 AM 16.4°F-8.7°C 13.5°F-10.3°C 88% 6.0 mph SE9.7 kmh SE 17.0 mph27.4 kmh 30.05 in1017.6 mb 0.00 in0.0 mm 0.00 in0.0 mm 0.00 in0.0 mm
09:05 AM 16.4°F-8.7°C 13.5°F-10.3°C 88% 8.0 mph S12.9 kmh S 15.0 mph24.1 kmh 30.05 in1017.6 mb 0.00 in0.0 mm 0.00 in0.0 mm 0.00 in0.0 mm
09:00 AM 16.4°F-8.7°C 13.5°F-10.3°C 88% 10.0 mph SE16.1 kmh SE 15.0 mph24.1 kmh 30.06 in1017.9 mb 0.00 in0.0 mm 0.00 in0.0 mm 0.00 in0.0 mm
08:55 AM 16.2°F-8.8°C 13.3°F-10.4°C 88% 8.0 mph SE12.9 kmh SE 15.0 mph24.1 kmh 30.05 in1017.6 mb 0.00 in0.0 mm 0.00 in0.0 mm 0.00 in0.0 mm
08:50 AM 16.1°F-8.8°C 13.4°F-10.3°C 89% 5.0 mph S8.0 kmh S 15.0 mph24.1 kmh 30.06 in1017.9 mb 0.00 in0.0 mm 0.00 in0.0 mm 0.00 in0.0 mm
08:45 AM 16.0°F-8.9°C 13.3°F-10.4°C 89% 8.0 mph SSE12.9 kmh SSE 15.0 mph24.1 kmh 30.06 in1017.9 mb 0.00 in0.0 mm 0.00 in0.0 mm 0.00 in0.0 mm
08:40 AM 15.8°F-9.0°C 13.1°F-10.5°C 89% 3.0 mph SE4.8 kmh SE 14.0 mph22.5 kmh 30.07 in1018.3 mb 0.00 in0.0 mm 0.00 in0.0 mm 0.00 in0.0 mm
08:35 AM 15.6°F-9.1°C 12.9°F-10.6°C 89% 5.0 mph SE8.0 kmh SE 14.0 mph22.5 kmh 30.07 in1018.3 mb 0.00 in0.0 mm 0.00 in0.0 mm 0.00 in0.0 mm
08:30 AM 15.5°F-9.2°C 12.8°F-10.7°C 89% 8.0 mph SSE12.9 kmh SSE 14.0 mph22.5 kmh 30.07 in1018.3 mb 0.00 in0.0 mm 0.00 in0.0 mm 0.00 in0.0 mm
08:25 AM 15.4°F-9.2°C 12.7°F-10.7°C 89% 5.0 mph S8.0 kmh S 18.0 mph29.0 kmh 30.07 in1018.3 mb 0.00 in0.0 mm 0.00 in0.0 mm 0.00 in0.0 mm
08:20 AM 15.3°F-9.3°C 12.9°F-10.6°C 90% 4.0 mph ESE6.4 kmh ESE 18.0 mph29.0 kmh 30.07 in1018.3 mb 0.00 in0.0 mm 0.00 in0.0 mm 0.00 in0.0 mm
08:15 AM 15.1°F-9.4°C 12.7°F-10.7°C 90% 7.0 mph SE11.3 kmh SE 18.0 mph29.0 kmh 30.07 in1018.3 mb 0.00 in0.0 mm 0.00 in0.0 mm 0.00 in0.0 mm
08:10 AM 15.0°F-9.4°C 12.6°F-10.8°C 90% 5.0 mph SSE8.0 kmh SSE 18.0 mph29.0 kmh 30.07 in1018.3 mb 0.00 in0.0 mm 0.00 in0.0 mm 0.00 in0.0 mm
08:05 AM 15.0°F-9.4°C 12.6°F-10.8°C 90% 7.0 mph SSE11.3 kmh SSE 18.0 mph29.0 kmh 30.07 in1018.3 mb 0.00 in0.0 mm 0.00 in0.0 mm 0.00 in0.0 mm
08:00 AM 14.9°F-9.5°C 12.5°F-10.8°C 90% 4.0 mph SSE6.4 kmh SSE 13.0 mph20.9 kmh 30.08 in1018.6 mb 0.00 in0.0 mm 0.00 in0.0 mm 0.00 in0.0 mm
07:55 AM 14.8°F-9.6°C 12.4°F-10.9°C 90% 7.0 mph SSE11.3 kmh SSE 13.0 mph20.9 kmh 30.07 in1018.3 mb 0.00 in0.0 mm 0.00 in0.0 mm 0.00 in0.0 mm
07:50 AM 14.7°F-9.6°C 12.3°F-10.9°C 90% 4.0 mph SE6.4 kmh SE 12.0 mph19.3 kmh 30.08 in1018.6 mb 0.00 in0.0 mm 0.00 in0.0 mm 0.00 in0.0 mm
07:45 AM 14.7°F-9.6°C 12.3°F-10.9°C 90% 9.0 mph S14.5 kmh S 12.0 mph19.3 kmh 30.08 in1018.6 mb 0.00 in0.0 mm 0.00 in0.0 mm 0.00 in0.0 mm
07:40 AM 14.7°F-9.6°C 12.3°F-10.9°C 90% 6.0 mph SE9.7 kmh SE 12.0 mph19.3 kmh 30.08 in1018.6 mb 0.00 in0.0 mm 0.00 in0.0 mm 0.00 in0.0 mm
07:35 AM 14.5°F-9.7°C 11.9°F-11.2°C 89% 4.0 mph SE6.4 kmh SE 12.0 mph19.3 kmh 30.08 in1018.6 mb 0.00 in0.0 mm 0.00 in0.0 mm 0.00 in0.0 mm
07:30 AM 14.5°F-9.7°C 11.9°F-11.2°C 89% 7.0 mph SE11.3 kmh SE 12.0 mph19.3 kmh 30.08 in1018.6 mb 0.00 in0.0 mm 0.00 in0.0 mm 0.00 in0.0 mm
07:25 AM 14.4°F-9.8°C 11.8°F-11.2°C 89% 6.0 mph SE9.7 kmh SE 12.0 mph19.3 kmh 30.08 in1018.6 mb 0.00 in0.0 mm 0.00 in0.0 mm 0.00 in0.0 mm
07:20 AM 14.3°F-9.8°C 11.7°F-11.3°C 89% 4.0 mph SE6.4 kmh SE 11.0 mph17.7 kmh 30.08 in1018.6 mb 0.00 in0.0 mm 0.00 in0.0 mm 0.00 in0.0 mm
07:15 AM 14.2°F-9.9°C 11.6°F-11.3°C 89% 5.0 mph SE8.0 kmh SE 11.0 mph17.7 kmh 30.09 in1019.0 mb 0.00 in0.0 mm 0.00 in0.0 mm 0.00 in0.0 mm
07:10 AM 14.1°F-9.9°C 11.5°F-11.4°C 89% 6.0 mph E9.7 kmh E 11.0 mph17.7 kmh 30.09 in1019.0 mb 0.00 in0.0 mm 0.00 in0.0 mm 0.00 in0.0 mm
07:05 AM 14.1°F-9.9°C 11.5°F-11.4°C 89% 4.0 mph SE6.4 kmh SE 7.0 mph11.3 kmh 30.09 in1019.0 mb 0.00 in0.0 mm 0.00 in0.0 mm 0.00 in0.0 mm
07:00 AM 14.1°F-9.9°C 11.5°F-11.4°C 89% 3.0 mph SSE4.8 kmh SSE 5.0 mph8.0 kmh 30.09 in1019.0 mb 0.00 in0.0 mm 0.00 in0.0 mm 0.00 in0.0 mm
06:55 AM 14.1°F-9.9°C 11.5°F-11.4°C 89% 3.0 mph SE4.8 kmh SE 13.0 mph20.9 kmh 30.09 in1019.0 mb 0.00 in0.0 mm 0.00 in0.0 mm 0.00 in0.0 mm
06:50 AM 14.0°F-10.0°C 11.4°F-11.4°C 89% 3.0 mph SSE4.8 kmh SSE 13.0 mph20.9 kmh 30.09 in1019.0 mb 0.00 in0.0 mm 0.00 in0.0 mm 0.00 in0.0 mm
06:45 AM 14.0°F-10.0°C 11.4°F-11.4°C 89% 7.0 mph E11.3 kmh E 13.0 mph20.9 kmh 30.10 in1019.3 mb 0.00 in0.0 mm 0.00 in0.0 mm 0.00 in0.0 mm
06:40 AM 13.9°F-10.1°C 11.3°F-11.5°C 89% 3.0 mph ESE4.8 kmh ESE 13.0 mph20.9 kmh 30.10 in1019.3 mb 0.00 in0.0 mm 0.00 in0.0 mm 0.00 in0.0 mm
06:35 AM 13.8°F-10.1°C 11.2°F-11.6°C 89% 9.0 mph SSE14.5 kmh SSE 13.0 mph20.9 kmh 30.10 in1019.3 mb 0.00 in0.0 mm 0.00 in0.0 mm 0.00 in0.0 mm
06:30 AM 13.8°F-10.1°C 11.2°F-11.6°C 89% 5.0 mph E8.0 kmh E 7.0 mph11.3 kmh 30.11 in1019.6 mb 0.00 in0.0 mm 0.00 in0.0 mm 0.00 in0.0 mm
06:25 AM 13.9°F-10.1°C 11.3°F-11.5°C 89% 6.0 mph SE9.7 kmh SE 13.0 mph20.9 kmh 30.10 in1019.3 mb 0.00 in0.0 mm 0.00 in0.0 mm 0.00 in0.0 mm
06:20 AM 14.0°F-10.0°C 11.4°F-11.4°C 89% 4.0 mph SE6.4 kmh SE 13.0 mph20.9 kmh 30.11 in1019.6 mb 0.00 in0.0 mm 0.00 in0.0 mm 0.00 in0.0 mm
06:15 AM 13.7°F-10.2°C 11.1°F-11.6°C 89% 3.0 mph SSE4.8 kmh SSE 13.0 mph20.9 kmh 30.11 in1019.6 mb 0.00 in0.0 mm 0.00 in0.0 mm 0.00 in0.0 mm
06:10 AM 13.7°F-10.2°C 11.1°F-11.6°C 89% 4.0 mph SE6.4 kmh SE 13.0 mph20.9 kmh 30.11 in1019.6 mb 0.00 in0.0 mm 0.00 in0.0 mm 0.00 in0.0 mm
06:05 AM 13.8°F-10.1°C 11.2°F-11.6°C 89% 6.0 mph SE9.7 kmh SE 13.0 mph20.9 kmh 30.11 in1019.6 mb 0.00 in0.0 mm 0.00 in0.0 mm 0.00 in0.0 mm
06:00 AM 13.8°F-10.1°C 11.2°F-11.6°C 89% 4.0 mph SE6.4 kmh SE 10.0 mph16.1 kmh 30.11 in1019.6 mb 0.00 in0.0 mm 0.00 in0.0 mm 0.00 in0.0 mm
05:55 AM 13.7°F-10.2°C 11.1°F-11.6°C 89% 5.0 mph SSE8.0 kmh SSE 13.0 mph20.9 kmh 30.11 in1019.6 mb 0.00 in0.0 mm 0.00 in0.0 mm 0.00 in0.0 mm
05:50 AM 13.8°F-10.1°C 11.2°F-11.6°C 89% 5.0 mph SE8.0 kmh SE 13.0 mph20.9 kmh 30.12 in1020.0 mb 0.00 in0.0 mm 0.00 in0.0 mm 0.00 in0.0 mm
05:45 AM 13.6°F-10.2°C 11.0°F-11.7°C 89% 5.0 mph SE8.0 kmh SE 13.0 mph20.9 kmh 30.12 in1020.0 mb 0.00 in0.0 mm 0.00 in0.0 mm 0.00 in0.0 mm
05:40 AM 13.6°F-10.2°C 11.0°F-11.7°C 89% 5.0 mph SE8.0 kmh SE 11.0 mph17.7 kmh 30.12 in1020.0 mb 0.00 in0.0 mm 0.00 in0.0 mm 0.00 in0.0 mm
05:35 AM 13.6°F-10.2°C 10.7°F-11.8°C 88% 8.0 mph SE12.9 kmh SE 9.0 mph14.5 kmh 30.12 in1020.0 mb 0.00 in0.0 mm 0.00 in0.0 mm 0.00 in0.0 mm
05:30 AM 13.6°F-10.2°C 10.7°F-11.8°C 88% 6.0 mph SE9.7 kmh SE 9.0 mph14.5 kmh 30.13 in1020.3 mb 0.00 in0.0 mm 0.00 in0.0 mm 0.00 in0.0 mm
05:25 AM 13.5°F-10.3°C 10.6°F-11.9°C 88% 4.0 mph SSE6.4 kmh SSE 16.0 mph25.7 kmh 30.13 in1020.3 mb 0.00 in0.0 mm 0.00 in0.0 mm 0.00 in0.0 mm
05:20 AM 13.5°F-10.3°C 10.6°F-11.9°C 88% 8.0 mph SE12.9 kmh SE 16.0 mph25.7 kmh 30.13 in1020.3 mb 0.00 in0.0 mm 0.00 in0.0 mm 0.00 in0.0 mm
05:15 AM 13.6°F-10.2°C 10.7°F-11.8°C 88% 10.0 mph SE16.1 kmh SE 16.0 mph25.7 kmh 30.13 in1020.3 mb 0.00 in0.0 mm 0.00 in0.0 mm 0.00 in0.0 mm
05:10 AM 13.7°F-10.2°C 10.6°F-11.9°C 87% 7.0 mph S11.3 kmh S 13.0 mph20.9 kmh 30.13 in1020.3 mb 0.00 in0.0 mm 0.00 in0.0 mm 0.00 in0.0 mm
05:05 AM 13.6°F-10.2°C 10.5°F-11.9°C 87% 5.0 mph SSE8.0 kmh SSE 12.0 mph19.3 kmh 30.13 in1020.3 mb 0.00 in0.0 mm 0.00 in0.0 mm 0.00 in0.0 mm
05:00 AM 13.6°F-10.2°C 10.5°F-11.9°C 87% 4.0 mph SE6.4 kmh SE 8.0 mph12.9 kmh 30.14 in1020.7 mb 0.00 in0.0 mm 0.00 in0.0 mm 0.00 in0.0 mm
04:55 AM 13.7°F-10.2°C 10.6°F-11.9°C 87% 7.0 mph SE11.3 kmh SE 15.0 mph24.1 kmh 30.14 in1020.7 mb 0.00 in0.0 mm 0.00 in0.0 mm 0.00 in0.0 mm
04:50 AM 13.7°F-10.2°C 10.6°F-11.9°C 87% 10.0 mph SE16.1 kmh SE 15.0 mph24.1 kmh 30.14 in1020.7 mb 0.00 in0.0 mm 0.00 in0.0 mm 0.00 in0.0 mm
04:45 AM 13.6°F-10.2°C 10.2°F-12.1°C 86% 7.0 mph S11.3 kmh S 15.0 mph24.1 kmh 30.14 in1020.7 mb 0.00 in0.0 mm 0.00 in0.0 mm 0.00 in0.0 mm
04:40 AM 13.6°F-10.2°C 10.2°F-12.1°C 86% 7.0 mph ESE11.3 kmh ESE 13.0 mph20.9 kmh 30.14 in1020.7 mb 0.00 in0.0 mm 0.00 in0.0 mm 0.00 in0.0 mm
04:35 AM 13.5°F-10.3°C 10.4°F-12.0°C 87% 9.0 mph SSW14.5 kmh SSW 13.0 mph20.9 kmh 30.14 in1020.7 mb 0.00 in0.0 mm 0.00 in0.0 mm 0.00 in0.0 mm
04:30 AM 13.5°F-10.3°C 10.4°F-12.0°C 87% 8.0 mph ESE12.9 kmh ESE 11.0 mph17.7 kmh 30.14 in1020.7 mb 0.00 in0.0 mm 0.00 in0.0 mm 0.00 in0.0 mm
04:25 AM 13.3°F-10.4°C 9.9°F-12.3°C 86% 6.0 mph S9.7 kmh S 13.0 mph20.9 kmh 30.14 in1020.7 mb 0.00 in0.0 mm 0.00 in0.0 mm 0.00 in0.0 mm
04:20 AM 13.3°F-10.4°C 10.2°F-12.1°C 87% 9.0 mph SE14.5 kmh SE 13.0 mph20.9 kmh 30.14 in1020.7 mb 0.00 in0.0 mm 0.00 in0.0 mm 0.00 in0.0 mm
04:15 AM 13.2°F-10.4°C 9.8°F-12.3°C 86% 8.0 mph SE12.9 kmh SE 13.0 mph20.9 kmh 30.15 in1021.0 mb 0.00 in0.0 mm 0.00 in0.0 mm 0.00 in0.0 mm
04:10 AM 13.1°F-10.5°C 10.0°F-12.2°C 87% 6.0 mph SE9.7 kmh SE 13.0 mph20.9 kmh 30.15 in1021.0 mb 0.00 in0.0 mm 0.00 in0.0 mm 0.00 in0.0 mm
04:05 AM 12.9°F-10.6°C 9.5°F-12.5°C 86% 8.0 mph ESE12.9 kmh ESE 13.0 mph20.9 kmh 30.15 in1021.0 mb 0.00 in0.0 mm 0.00 in0.0 mm 0.00 in0.0 mm
04:00 AM 12.9°F-10.6°C 9.5°F-12.5°C 86% 6.0 mph SE9.7 kmh SE 11.0 mph17.7 kmh 30.16 in1021.3 mb 0.00 in0.0 mm 0.00 in0.0 mm 0.00 in0.0 mm
03:55 AM 12.9°F-10.6°C 9.5°F-12.5°C 86% 7.0 mph SE11.3 kmh SE 17.0 mph27.4 kmh 30.16 in1021.3 mb 0.00 in0.0 mm 0.00 in0.0 mm 0.00 in0.0 mm
03:50 AM 12.9°F-10.6°C 9.5°F-12.5°C 86% 7.0 mph SE11.3 kmh SE 14.0 mph22.5 kmh 30.16 in1021.3 mb 0.00 in0.0 mm 0.00 in0.0 mm 0.00 in0.0 mm
03:45 AM 12.9°F-10.6°C 9.5°F-12.5°C 86% 8.0 mph ESE12.9 kmh ESE 14.0 mph22.5 kmh 30.16 in1021.3 mb 0.00 in0.0 mm 0.00 in0.0 mm 0.00 in0.0 mm
03:40 AM 12.8°F-10.7°C 9.4°F-12.6°C 86% 12.0 mph ESE19.3 kmh ESE 14.0 mph22.5 kmh 30.17 in1021.7 mb 0.00 in0.0 mm 0.00 in0.0 mm 0.00 in0.0 mm
03:35 AM 12.7°F-10.7°C 9.3°F-12.6°C 86% 4.0 mph SE6.4 kmh SE 14.0 mph22.5 kmh 30.17 in1021.7 mb 0.00 in0.0 mm 0.00 in0.0 mm 0.00 in0.0 mm
03:30 AM 12.5°F-10.8°C 9.1°F-12.7°C 86% 7.0 mph SE11.3 kmh SE 11.0 mph17.7 kmh 30.18 in1022.0 mb 0.00 in0.0 mm 0.00 in0.0 mm 0.00 in0.0 mm
03:25 AM 12.4°F-10.9°C 9.0°F-12.8°C 86% 8.0 mph SE12.9 kmh SE 17.0 mph27.4 kmh 30.18 in1022.0 mb 0.00 in0.0 mm 0.00 in0.0 mm 0.00 in0.0 mm
03:20 AM 12.4°F-10.9°C 9.0°F-12.8°C 86% 8.0 mph SSE12.9 kmh SSE 15.0 mph24.1 kmh 30.19 in1022.4 mb 0.00 in0.0 mm 0.00 in0.0 mm 0.00 in0.0 mm
03:15 AM 12.3°F-10.9°C 9.2°F-12.7°C 87% 9.0 mph SE14.5 kmh SE 15.0 mph24.1 kmh 30.20 in1022.7 mb 0.00 in0.0 mm 0.00 in0.0 mm 0.00 in0.0 mm
03:10 AM 12.2°F-11.0°C 9.1°F-12.7°C 87% 10.0 mph SE16.1 kmh SE 13.0 mph20.9 kmh 30.20 in1022.7 mb 0.00 in0.0 mm 0.00 in0.0 mm 0.00 in0.0 mm
03:05 AM 12.3°F-10.9°C 9.2°F-12.7°C 87% 7.0 mph SE11.3 kmh SE 12.0 mph19.3 kmh 30.20 in1022.7 mb 0.00 in0.0 mm 0.00 in0.0 mm 0.00 in0.0 mm
03:00 AM 12.2°F-11.0°C 9.1°F-12.7°C 87% 7.0 mph SE11.3 kmh SE 12.0 mph19.3 kmh 30.20 in1022.7 mb 0.00 in0.0 mm 0.00 in0.0 mm 0.00 in0.0 mm
02:55 AM 12.3°F-10.9°C 9.2°F-12.7°C 87% 5.0 mph S8.0 kmh S 14.0 mph22.5 kmh 30.21 in1023.0 mb 0.00 in0.0 mm 0.00 in0.0 mm 0.00 in0.0 mm
02:50 AM 12.1°F-11.1°C 9.0°F-12.8°C 87% 4.0 mph S6.4 kmh S 14.0 mph22.5 kmh 30.22 in1023.4 mb 0.00 in0.0 mm 0.00 in0.0 mm 0.00 in0.0 mm
02:45 AM 12.1°F-11.1°C 9.0°F-12.8°C 87% 6.0 mph SE9.7 kmh SE 14.0 mph22.5 kmh 30.22 in1023.4 mb 0.00 in0.0 mm 0.00 in0.0 mm 0.00 in0.0 mm
02:40 AM 12.1°F-11.1°C 9.0°F-12.8°C 87% 8.0 mph ESE12.9 kmh ESE 10.0 mph16.1 kmh 30.22 in1023.4 mb 0.00 in0.0 mm 0.00 in0.0 mm 0.00 in0.0 mm
02:35 AM 12.1°F-11.1°C 9.0°F-12.8°C 87% 9.0 mph ESE14.5 kmh ESE 10.0 mph16.1 kmh 30.23 in1023.7 mb 0.00 in0.0 mm 0.00 in0.0 mm 0.00 in0.0 mm
02:30 AM 12.0°F-11.1°C 8.9°F-12.8°C 87% 7.0 mph SE11.3 kmh SE 7.0 mph11.3 kmh 30.23 in1023.7 mb 0.00 in0.0 mm 0.00 in0.0 mm 0.00 in0.0 mm
02:25 AM 12.1°F-11.1°C 9.0°F-12.8°C 87% 8.0 mph SE12.9 kmh SE 14.0 mph22.5 kmh 30.24 in1024.0 mb 0.00 in0.0 mm 0.00 in0.0 mm 0.00 in0.0 mm
02:20 AM 12.2°F-11.0°C 9.1°F-12.7°C 87% 4.0 mph SE6.4 kmh SE 12.0 mph19.3 kmh 30.24 in1024.0 mb 0.00 in0.0 mm 0.00 in0.0 mm 0.00 in0.0 mm
02:15 AM 12.2°F-11.0°C 8.8°F-12.9°C 86% 8.0 mph SE12.9 kmh SE 12.0 mph19.3 kmh 30.25 in1024.4 mb 0.00 in0.0 mm 0.00 in0.0 mm 0.00 in0.0 mm
02:10 AM 12.2°F-11.0°C 8.8°F-12.9°C 86% 4.0 mph SE6.4 kmh SE 12.0 mph19.3 kmh 30.25 in1024.4 mb 0.00 in0.0 mm 0.00 in0.0 mm 0.00 in0.0 mm
02:05 AM 12.2°F-11.0°C 8.8°F-12.9°C 86% 6.0 mph SE9.7 kmh SE 12.0 mph19.3 kmh 30.25 in1024.4 mb 0.00 in0.0 mm 0.00 in0.0 mm 0.00 in0.0 mm
02:00 AM 12.2°F-11.0°C 8.8°F-12.9°C 86% 5.0 mph SE8.0 kmh SE 9.0 mph14.5 kmh 30.25 in1024.4 mb 0.00 in0.0 mm 0.00 in0.0 mm 0.00 in0.0 mm
01:55 AM 12.2°F-11.0°C 8.8°F-12.9°C 86% 9.0 mph SSE14.5 kmh SSE 12.0 mph19.3 kmh 30.26 in1024.7 mb 0.00 in0.0 mm 0.00 in0.0 mm 0.00 in0.0 mm
01:50 AM 12.3°F-10.9°C 8.9°F-12.8°C 86% 6.0 mph SSE9.7 kmh SSE 12.0 mph19.3 kmh 30.26 in1024.7 mb 0.00 in0.0 mm 0.00 in0.0 mm 0.00 in0.0 mm
01:45 AM 12.3°F-10.9°C 8.9°F-12.8°C 86% 5.0 mph S8.0 kmh S 12.0 mph19.3 kmh 30.26 in1024.7 mb 0.00 in0.0 mm 0.00 in0.0 mm 0.00 in0.0 mm
01:40 AM 12.3°F-10.9°C 8.9°F-12.8°C 86% 6.0 mph SE9.7 kmh SE 12.0 mph19.3 kmh 30.27 in1025.1 mb 0.00 in0.0 mm 0.00 in0.0 mm 0.00 in0.0 mm
01:35 AM 12.2°F-11.0°C 8.6°F-13.0°C 85% 7.0 mph SE11.3 kmh SE 12.0 mph19.3 kmh 30.28 in1025.4 mb 0.00 in0.0 mm 0.00 in0.0 mm 0.00 in0.0 mm
01:30 AM 12.2°F-11.0°C 8.6°F-13.0°C 85% 5.0 mph SSE8.0 kmh SSE 10.0 mph16.1 kmh 30.28 in1025.4 mb 0.00 in0.0 mm 0.00 in0.0 mm 0.00 in0.0 mm
01:25 AM 12.2°F-11.0°C 8.6°F-13.0°C 85% 6.0 mph SE9.7 kmh SE 20.0 mph32.2 kmh 30.29 in1025.7 mb 0.00 in0.0 mm 0.00 in0.0 mm 0.00 in0.0 mm
01:20 AM 12.1°F-11.1°C 8.2°F-13.2°C 84% 8.0 mph SSE12.9 kmh SSE 15.0 mph24.1 kmh 30.29 in1025.7 mb 0.00 in0.0 mm 0.00 in0.0 mm 0.00 in0.0 mm
01:15 AM 12.0°F-11.1°C 8.1°F-13.3°C 84% 5.0 mph SSE8.0 kmh SSE 15.0 mph24.1 kmh 30.29 in1025.7 mb 0.00 in0.0 mm 0.00 in0.0 mm 0.00 in0.0 mm
01:10 AM 11.9°F-11.2°C 7.7°F-13.5°C 83% 4.0 mph SSE6.4 kmh SSE 15.0 mph24.1 kmh 30.29 in1025.7 mb 0.00 in0.0 mm 0.00 in0.0 mm 0.00 in0.0 mm
01:05 AM 11.8°F-11.2°C 7.6°F-13.6°C 83% 15.0 mph S24.1 kmh S 15.0 mph24.1 kmh 30.30 in1026.1 mb 0.00 in0.0 mm 0.00 in0.0 mm 0.00 in0.0 mm
01:00 AM 11.7°F-11.3°C 7.6°F-13.6°C 83% 6.0 mph SE9.7 kmh SE 11.0 mph17.7 kmh 30.30 in1026.1 mb 0.00 in0.0 mm 0.00 in0.0 mm 0.00 in0.0 mm
12:55 AM 11.6°F-11.3°C 7.2°F-13.8°C 82% 9.0 mph S14.5 kmh S 15.0 mph24.1 kmh 30.30 in1026.1 mb 0.00 in0.0 mm 0.00 in0.0 mm 0.00 in0.0 mm
12:50 AM 11.5°F-11.4°C 6.8°F-14.0°C 81% 3.0 mph SSE4.8 kmh SSE 15.0 mph24.1 kmh 30.31 in1026.4 mb 0.00 in0.0 mm 0.00 in0.0 mm 0.00 in0.0 mm
12:45 AM 11.4°F-11.4°C 6.7°F-14.1°C 81% 5.0 mph S8.0 kmh S 15.0 mph24.1 kmh 30.31 in1026.4 mb 0.00 in0.0 mm 0.00 in0.0 mm 0.00 in0.0 mm
12:40 AM 11.4°F-11.4°C 6.7°F-14.1°C 81% 5.0 mph SSE8.0 kmh SSE 15.0 mph24.1 kmh 30.31 in1026.4 mb 0.00 in0.0 mm 0.00 in0.0 mm 0.00 in0.0 mm
12:35 AM 11.3°F-11.5°C 6.3°F-14.3°C 80% 7.0 mph S11.3 kmh S 15.0 mph24.1 kmh 30.32 in1026.8 mb 0.00 in0.0 mm 0.00 in0.0 mm 0.00 in0.0 mm
12:30 AM 11.4°F-11.4°C 6.2°F-14.3°C 79% 4.0 mph SSE6.4 kmh SSE 9.0 mph14.5 kmh 30.32 in1026.8 mb 0.00 in0.0 mm 0.00 in0.0 mm 0.00 in0.0 mm
12:25 AM 11.4°F-11.4°C 6.2°F-14.3°C 79% 4.0 mph SE6.4 kmh SE 17.0 mph27.4 kmh 30.32 in1026.8 mb 0.00 in0.0 mm 0.00 in0.0 mm 0.00 in0.0 mm
12:20 AM 11.3°F-11.5°C 6.1°F-14.4°C 79% 6.0 mph S9.7 kmh S 16.0 mph25.7 kmh 30.32 in1026.8 mb 0.00 in0.0 mm 0.00 in0.0 mm 0.00 in0.0 mm
12:15 AM 11.2°F-11.6°C 5.7°F-14.6°C 78% 4.0 mph SSE6.4 kmh SSE 16.0 mph25.7 kmh 30.32 in1026.8 mb 0.00 in0.0 mm 0.00 in0.0 mm 0.00 in0.0 mm
12:10 AM 11.2°F-11.6°C 5.4°F-14.8°C 77% 4.0 mph ENE6.4 kmh ENE 16.0 mph25.7 kmh 30.32 in1026.8 mb 0.00 in0.0 mm 0.00 in0.0 mm 0.00 in0.0 mm
12:05 AM 11.1°F-11.6°C 5.6°F-14.7°C 78% 3.0 mph SE4.8 kmh SE 16.0 mph25.7 kmh 30.33 in1027.1 mb 0.00 in0.0 mm 0.00 in0.0 mm 0.00 in0.0 mm
12:00 AM 11.1°F-11.6°C 5.6°F-14.7°C 78% 6.0 mph SE9.7 kmh SE 11.0 mph17.7 kmh 30.33 in1027.1 mb 0.00 in0.0 mm 0.00 in0.0 mm 0.00 in0.0 mm